Time;durP1;ratioP1;P1;durP2;ratioP2;P2;SDS_P1;SDS_P2;PMS_P1;PMS_P2;Temp;Humidity;BMP_temperature;BMP_pressure;BME280_temperature;BME280_humidity;BME280_pressure;Samples;Min_cycle;Max_cycle;Signal;HPM_P1;HPM_P2
2022/01/15 00:01:01;;;;;;;;;31.00;28.00;;;;;;;;5287489;28;8752;-67
2022/01/15 00:03:32;;;;;;;;;21.00;20.60;;;;;;;;5289014;28;8784;-67
2022/01/15 00:06:22;;;;;;;;;20.00;19.00;;;;;;;;5299143;27;8759;-67
2022/01/15 00:08:53;;;;;;;;;18.25;15.50;;;;;;;;5314101;27;8755;-67
2022/01/15 00:11:24;;;;;;;;;9.50;9.25;;;;;;;;5314071;27;8778;-67
2022/01/15 00:13:58;;;;;;;;;12.00;12.00;;;;;;;;5313653;27;8789;-67
2022/01/15 00:16:44;;;;;;;;;15.80;15.80;;;;;;;;5314397;27;8787;-68
2022/01/15 00:19:17;;;;;;;;;12.40;10.80;;;;;;;;5295821;27;8794;-68
2022/01/15 00:21:48;;;;;;;;;15.40;14.40;;;;;;;;5314073;27;8766;-68
2022/01/15 00:24:19;;;;;;;;;15.25;15.00;;;;;;;;5278777;27;8790;-68
2022/01/15 00:26:50;;;;;;;;;12.25;11.50;;;;;;;;5314258;27;8801;-68
2022/01/15 00:29:21;;;;;;;;;30.00;27.80;;;;;;;;5278045;27;8801;-69
2022/01/15 00:32:10;;;;;;;;;22.40;21.60;;;;;;;;5298436;27;8766;-69
2022/01/15 00:35:00;;;;;;;;;31.60;31.60;;;;;;;;5301707;27;8780;-69
2022/01/15 00:37:50;;;;;;;;;15.80;15.80;;;;;;;;5292570;28;8784;-68
2022/01/15 00:40:39;;;;;;;;;18.00;17.00;;;;;;;;5292892;27;8778;-69
2022/01/15 00:43:29;;;;;;;;;16.20;15.20;;;;;;;;5313474;27;8742;-68
2022/01/15 00:46:18;;;;;;;;;18.20;18.00;;;;;;;;5314270;27;8809;-68
2022/01/15 00:49:26;;;;;;;;;22.40;22.40;;;;;;;;5313672;27;8754;-68
2022/01/15 00:51:57;;;;;;;;;22.50;22.50;;;;;;;;5313690;27;8746;-68
2022/01/15 00:54:28;;;;;;;;;27.25;25.50;;;;;;;;5312892;27;9484;-68
2022/01/15 00:56:58;;;;;;;;;26.50;26.50;;;;;;;;5294928;27;8774;-68
2022/01/15 00:59:29;;;;;;;;;18.00;18.00;;;;;;;;5312818;27;8808;-68
2022/01/15 01:02:00;;;;;;;;;18.00;16.50;;;;;;;;5295003;27;8828;-68
2022/01/15 01:04:49;;;;;;;;;24.60;23.40;;;;;;;;5313021;27;8908;-68
2022/01/15 01:07:20;;;;;;;;;19.50;19.50;;;;;;;;5312664;27;9638;-68
2022/01/15 01:12:57;;;;;;;;;24.25;22.00;;;;;;;;5312697;27;8863;-68
2022/01/15 01:23:38;;;;;;;;;21.60;20.20;;;;;;;;5273206;28;8793;-68
2022/01/15 01:26:27;;;;;;;;;18.20;17.60;;;;;;;;5273268;28;9480;-68
2022/01/15 01:29:09;;;;;;;;;24.20;22.40;;;;;;;;5291296;28;8899;-68
2022/01/15 01:32:05;;;;;;;;;17.60;17.60;;;;;;;;5290922;28;8769;-68
2022/01/15 01:34:39;;;;;;;;;21.80;21.00;;;;;;;;5291701;28;8792;-68
2022/01/15 01:37:36;;;;;;;;;17.40;17.20;;;;;;;;5291040;28;8873;-69
2022/01/15 01:40:38;;;;;;;;;23.20;21.60;;;;;;;;5291256;28;8760;-68
2022/01/15 01:43:08;;;;;;;;;20.80;20.20;;;;;;;;5290412;28;9517;-68
2022/01/15 01:45:44;;;;;;;;;16.40;16.40;;;;;;;;5272781;28;8792;-68
2022/01/15 01:48:15;;;;;;;;;20.00;18.20;;;;;;;;5291122;28;8772;-68
2022/01/15 01:50:46;;;;;;;;;16.00;16.00;;;;;;;;5290791;28;8756;-69
2022/01/15 01:53:17;;;;;;;;;8.50;8.50;;;;;;;;5290946;28;8769;-69
2022/01/15 01:55:48;;;;;;;;;11.60;11.60;;;;;;;;5290561;28;8764;-69
2022/01/15 01:58:19;;;;;;;;;8.80;8.80;;;;;;;;5290562;28;8809;-69
2022/01/15 02:00:50;;;;;;;;;3.50;3.00;;;;;;;;5255633;28;8807;-68
2022/01/15 02:03:21;;;;;;;;;6.40;6.00;;;;;;;;5290277;28;8800;-69
2022/01/15 02:05:53;;;;;;;;;21.00;19.80;;;;;;;;5290175;28;8765;-67
2022/01/15 02:08:25;;;;;;;;;12.00;12.00;;;;;;;;5289997;28;8764;-67
2022/01/15 02:10:57;;;;;;;;;13.00;13.00;;;;;;;;5272028;28;8772;-67
2022/01/15 02:13:29;;;;;;;;;9.60;9.60;;;;;;;;5290270;28;8772;-67
2022/01/15 02:16:00;;;;;;;;;10.60;9.40;;;;;;;;5291167;27;8829;-67
2022/01/15 02:18:33;;;;;;;;;17.00;15.80;;;;;;;;5293139;27;8810;-68
2022/01/15 02:24:13;;;;;;;;;12.60;12.00;;;;;;;;5293271;27;8762;-68
2022/01/15 02:26:45;;;;;;;;;10.80;10.80;;;;;;;;5276782;27;8793;-68
2022/01/15 02:29:35;;;;;;;;;12.40;12.40;;;;;;;;5311389;27;8797;-68
2022/01/15 02:32:06;;;;;;;;;15.00;13.00;;;;;;;;5311168;27;8774;-68
2022/01/15 02:34:37;;;;;;;;;9.80;9.80;;;;;;;;5292675;27;10986;-66
2022/01/15 02:37:08;;;;;;;;;11.60;11.60;;;;;;;;5293064;27;8771;-68
2022/01/15 02:39:39;;;;;;;;;12.75;12.75;;;;;;;;5293261;27;8780;-68
2022/01/15 02:42:10;;;;;;;;;9.20;9.20;;;;;;;;5311190;27;10693;-67
2022/01/15 02:44:43;;;;;;;;;12.00;11.75;;;;;;;;5302309;27;8820;-67
2022/01/15 02:50:24;;;;;;;;;10.00;9.80;;;;;;;;5271036;28;8783;-68
2022/01/15 02:52:59;;;;;;;;;15.40;14.20;;;;;;;;5253991;27;8802;-66
2022/01/15 02:55:50;;;;;;;;;9.80;9.40;;;;;;;;5310270;27;8789;-68
2022/01/15 02:58:21;;;;;;;;;10.80;9.40;;;;;;;;5310312;27;8833;-68
2022/01/15 03:00:53;;;;;;;;;8.60;8.60;;;;;;;;5310531;27;8778;-68
2022/01/15 03:03:23;;;;;;;;;9.00;9.00;;;;;;;;5310572;27;8774;-68
2022/01/15 03:05:54;;;;;;;;;10.00;9.75;;;;;;;;5310506;27;8770;-68
2022/01/15 03:08:25;;;;;;;;;0.00;0.00;;;;;;;;5292276;27;8808;-68
2022/01/15 03:10:56;;;;;;;;;10.25;10.25;;;;;;;;5291972;27;8790;-67
2022/01/15 03:13:27;;;;;;;;;16.75;14.50;;;;;;;;5289364;27;8855;-68
2022/01/15 03:15:58;;;;;;;;;13.75;13.75;;;;;;;;5288844;28;8838;-68
2022/01/15 03:18:28;;;;;;;;;29.75;29.00;;;;;;;;5289314;28;8792;-68
2022/01/15 03:20:59;;;;;;;;;18.75;18.75;;;;;;;;5288758;28;8784;-68
2022/01/15 03:23:30;;;;;;;;;19.50;18.75;;;;;;;;5270816;28;8813;-68
2022/01/15 03:26:01;;;;;;;;;9.75;9.75;;;;;;;;5288639;28;8930;-68
2022/01/15 03:28:32;;;;;;;;;17.00;16.40;;;;;;;;5270464;28;8781;-69
2022/01/15 03:31:03;;;;;;;;;13.50;13.50;;;;;;;;5289001;28;8812;-68
2022/01/15 03:33:34;;;;;;;;;24.00;24.00;;;;;;;;5270883;28;8768;-69
2022/01/15 03:36:05;;;;;;;;;10.20;10.20;;;;;;;;5270579;28;8773;-69
2022/01/15 03:38:36;;;;;;;;;12.50;12.50;;;;;;;;5295536;27;9527;-69
2022/01/15 03:41:07;;;;;;;;;30.75;29.50;;;;;;;;5309789;27;11361;-69
2022/01/15 03:43:38;;;;;;;;;12.50;11.75;;;;;;;;5291693;27;11471;-69
2022/01/15 03:46:08;;;;;;;;;15.50;15.25;;;;;;;;5291692;27;8833;-69
2022/01/15 03:48:39;;;;;;;;;15.00;11.50;;;;;;;;5310144;27;8766;-69
2022/01/15 03:51:10;;;;;;;;;13.75;13.75;;;;;;;;5291248;27;8766;-69
2022/01/15 03:53:41;;;;;;;;;8.00;8.00;;;;;;;;5310884;27;8831;-69
2022/01/15 03:56:12;;;;;;;;;10.00;10.00;;;;;;;;5291195;27;8885;-69
2022/01/15 03:58:42;;;;;;;;;11.00;11.00;;;;;;;;5274165;27;8802;-68
2022/01/15 04:01:13;;;;;;;;;13.00;12.00;;;;;;;;5306255;27;8897;-69
2022/01/15 04:03:44;;;;;;;;;10.50;9.25;;;;;;;;5291237;27;8758;-69
2022/01/15 04:06:15;;;;;;;;;15.25;14.00;;;;;;;;5310160;27;8754;-69
2022/01/15 04:08:46;;;;;;;;;9.25;9.25;;;;;;;;5308811;27;8767;-68
2022/01/15 04:11:16;;;;;;;;;15.25;15.25;;;;;;;;5294860;27;8779;-74
2022/01/15 04:13:47;;;;;;;;;15.50;14.25;;;;;;;;5310053;27;8755;-71
2022/01/15 04:16:18;;;;;;;;;12.00;12.00;;;;;;;;5275183;28;8822;-70
2022/01/15 04:18:49;;;;;;;;;10.00;10.00;;;;;;;;5288166;28;8819;-70
2022/01/15 04:21:20;;;;;;;;;6.25;6.25;;;;;;;;5269942;28;9498;-69
2022/01/15 04:23:51;;;;;;;;;16.00;15.75;;;;;;;;5288073;28;11473;-69
2022/01/15 04:26:25;;;;;;;;;14.40;13.20;;;;;;;;5270218;28;11435;-69
2022/01/15 04:29:02;;;;;;;;;18.00;18.00;;;;;;;;5287916;28;8790;-69
2022/01/15 04:31:50;;;;;;;;;21.80;20.20;;;;;;;;5269992;28;8787;-68
2022/01/15 04:34:25;;;;;;;;;15.40;15.40;;;;;;;;5270548;28;8811;-69
2022/01/15 04:37:02;;;;;;;;;17.60;15.80;;;;;;;;5287771;28;8767;-70
2022/01/15 04:39:33;;;;;;;;;21.80;21.40;;;;;;;;5269801;28;9609;-70
2022/01/15 04:42:25;;;;;;;;;21.60;21.20;;;;;;;;5288152;28;8759;-69
2022/01/15 04:45:14;;;;;;;;;14.00;14.00;;;;;;;;5288106;28;8933;-70
2022/01/15 04:47:46;;;;;;;;;35.20;31.80;;;;;;;;5252519;28;8779;-70
2022/01/15 04:50:17;;;;;;;;;55.67;48.33;;;;;;;;5289802;28;8787;-68
2022/01/15 04:52:48;;;;;;;;;18.80;18.00;;;;;;;;5256773;28;8802;-69
2022/01/15 04:55:37;;;;;;;;;11.40;10.60;;;;;;;;5274059;28;8795;-69
2022/01/15 04:58:08;;;;;;;;;9.60;9.60;;;;;;;;5292086;28;8818;-68
2022/01/15 05:00:39;;;;;;;;;36.40;36.00;;;;;;;;5291831;28;8780;-68
2022/01/15 05:03:10;;;;;;;;;14.00;14.00;;;;;;;;5273751;28;8844;-69
2022/01/15 05:05:41;;;;;;;;;20.25;17.75;;;;;;;;5291525;28;8834;-69
2022/01/15 05:08:12;;;;;;;;;24.75;24.50;;;;;;;;5291849;28;8827;-69
2022/01/15 05:10:47;;;;;;;;;25.60;22.60;;;;;;;;5291361;28;8832;-69
2022/01/15 05:13:37;;;;;;;;;105.00;86.67;;;;;;;;5291209;28;8775;-65
2022/01/15 05:16:08;;;;;;;;;94.67;75.67;;;;;;;;5290062;27;9554;-69
2022/01/15 05:18:38;;;;;;;;;37.00;35.75;;;;;;;;5311900;27;9137;-67
2022/01/15 05:21:09;;;;;;;;;24.00;24.00;;;;;;;;5282218;27;8808;-67
2022/01/15 05:23:40;;;;;;;;;12.50;12.50;;;;;;;;5312470;27;8762;-68
2022/01/15 05:26:12;;;;;;;;;18.00;15.25;;;;;;;;5305379;27;8812;-68
2022/01/15 05:28:42;;;;;;;;;9.20;8.60;;;;;;;;5305486;27;8767;-68
2022/01/15 05:31:31;;;;;;;;;15.20;15.20;;;;;;;;5312340;27;8952;-68
2022/01/15 05:34:02;;;;;;;;;18.00;17.00;;;;;;;;5312901;27;8962;-68
2022/01/15 05:36:33;;;;;;;;;15.25;15.00;;;;;;;;5312412;27;8771;-68
2022/01/15 05:39:04;;;;;;;;;15.00;15.00;;;;;;;;5312127;27;8793;-68
2022/01/15 05:41:35;;;;;;;;;18.50;17.50;;;;;;;;5284860;28;8784;-68
2022/01/15 05:44:05;;;;;;;;;11.25;9.50;;;;;;;;5303309;27;9461;-69
2022/01/15 05:46:36;;;;;;;;;22.50;21.75;;;;;;;;5312514;27;8798;-67
2022/01/15 05:49:07;;;;;;;;;16.60;16.60;;;;;;;;5312574;27;8782;-67
2022/01/15 05:51:38;;;;;;;;;42.00;34.75;;;;;;;;5311311;27;9465;-67
2022/01/15 05:54:10;;;;;;;;;90.00;66.33;;;;;;;;5293543;27;9453;-67
2022/01/15 05:56:41;;;;;;;;;14.20;14.20;;;;;;;;5293302;27;8943;-67
2022/01/15 05:59:12;;;;;;;;;11.50;10.00;;;;;;;;5274469;28;8816;-68
2022/01/15 06:01:43;;;;;;;;;18.00;15.00;;;;;;;;5290443;28;10050;-68
2022/01/15 06:04:14;;;;;;;;;21.00;21.00;;;;;;;;5273044;28;8792;-67
2022/01/15 06:06:45;;;;;;;;;18.25;18.25;;;;;;;;5291062;28;8779;-68
2022/01/15 06:09:16;;;;;;;;;15.25;14.50;;;;;;;;5290435;28;8792;-68
2022/01/15 06:11:47;;;;;;;;;10.50;9.50;;;;;;;;5281260;27;8790;-68
2022/01/15 06:14:17;;;;;;;;;13.50;13.00;;;;;;;;5292936;27;11370;-68
2022/01/15 06:16:48;;;;;;;;;12.50;11.75;;;;;;;;5288635;27;8781;-68
2022/01/15 06:19:19;;;;;;;;;19.50;18.50;;;;;;;;5304857;27;8848;-68
2022/01/15 06:21:50;;;;;;;;;19.50;19.00;;;;;;;;5289923;28;9178;-68
2022/01/15 06:24:21;;;;;;;;;19.00;16.75;;;;;;;;5288256;27;8786;-69
2022/01/15 06:26:52;;;;;;;;;33.00;32.00;;;;;;;;5310824;27;8913;-69
2022/01/15 06:29:23;;;;;;;;;34.80;33.20;;;;;;;;5310643;27;9507;-69
2022/01/15 06:31:54;;;;;;;;;23.60;22.20;;;;;;;;5308534;27;8767;-69
2022/01/15 06:34:28;;;;;;;;;17.20;16.00;;;;;;;;5311084;27;8766;-69
2022/01/15 06:36:59;;;;;;;;;33.50;32.50;;;;;;;;5311088;27;8823;-69
2022/01/15 06:39:30;;;;;;;;;25.80;24.80;;;;;;;;5310530;27;11463;-69
2022/01/15 06:42:01;;;;;;;;;28.80;28.60;;;;;;;;5305545;27;8819;-67
2022/01/15 06:44:32;;;;;;;;;18.20;18.20;;;;;;;;5289372;28;8820;-68
2022/01/15 06:47:22;;;;;;;;;19.00;19.00;;;;;;;;5289135;28;8881;-69
2022/01/15 06:49:53;;;;;;;;;20.60;20.40;;;;;;;;5289746;28;8788;-69
2022/01/15 06:52:24;;;;;;;;;18.50;18.00;;;;;;;;5289786;28;8791;-69
2022/01/15 06:55:13;;;;;;;;;21.00;19.20;;;;;;;;5289505;28;9254;-69
2022/01/15 06:57:45;;;;;;;;;26.50;26.50;;;;;;;;5302696;27;8813;-68
2022/01/15 07:00:16;;;;;;;;;27.60;27.60;;;;;;;;5310737;27;11503;-68
2022/01/15 07:02:47;;;;;;;;;51.50;47.50;;;;;;;;5291906;27;8794;-68
2022/01/15 07:05:20;;;;;;;;;33.00;31.00;;;;;;;;5292074;27;8789;-68
2022/01/15 07:07:52;;;;;;;;;21.20;21.20;;;;;;;;5307506;27;8794;-68
2022/01/15 07:10:23;;;;;;;;;29.60;29.20;;;;;;;;5302439;27;8793;-68
2022/01/15 07:12:54;;;;;;;;;70.60;56.00;;;;;;;;5309967;27;8775;-69
2022/01/15 07:15:25;;;;;;;;;70.67;59.33;;;;;;;;5276793;28;9546;-69
2022/01/15 07:17:59;;;;;;;;;40.40;40.20;;;;;;;;5270467;28;8820;-69
2022/01/15 07:20:30;;;;;;;;;48.60;45.60;;;;;;;;5288874;28;8915;-69
2022/01/15 07:23:19;;;;;;;;;35.60;30.20;;;;;;;;5273441;28;8811;-68
2022/01/15 07:25:50;;;;;;;;;36.40;34.80;;;;;;;;5288618;27;9506;-68
2022/01/15 07:28:24;;;;;;;;;49.25;45.00;;;;;;;;5309889;27;8797;-68
2022/01/15 07:30:54;;;;;;;;;17.00;16.80;;;;;;;;5310019;27;9626;-68
2022/01/15 07:33:25;;;;;;;;;24.50;23.00;;;;;;;;5291590;27;8790;-69
2022/01/15 07:35:57;;;;;;;;;29.60;28.60;;;;;;;;5290967;27;11466;-68
2022/01/15 07:38:28;;;;;;;;;31.00;26.60;;;;;;;;5309566;27;8828;-68
2022/01/15 07:40:59;;;;;;;;;19.50;19.50;;;;;;;;5290915;27;8790;-68
2022/01/15 07:43:30;;;;;;;;;18.60;18.60;;;;;;;;5291241;27;8775;-68
2022/01/15 07:46:20;;;;;;;;;21.20;20.60;;;;;;;;5306192;27;9508;-68
2022/01/15 07:48:51;;;;;;;;;18.00;18.00;;;;;;;;5309498;27;8762;-68
2022/01/15 07:51:22;;;;;;;;;9.75;5.75;;;;;;;;5302726;27;8793;-68
2022/01/15 07:53:53;;;;;;;;;18.80;18.60;;;;;;;;5288075;28;11456;-68
2022/01/15 07:56:24;;;;;;;;;22.25;22.00;;;;;;;;5286824;28;8774;-68
2022/01/15 07:58:55;;;;;;;;;29.00;27.50;;;;;;;;5291326;27;9476;-68
2022/01/15 08:01:27;;;;;;;;;22.80;17.60;;;;;;;;5309224;27;10929;-68
2022/01/15 08:03:58;;;;;;;;;17.60;16.80;;;;;;;;5309162;27;8770;-68
2022/01/15 08:06:29;;;;;;;;;17.00;17.00;;;;;;;;5309156;27;8817;-68
2022/01/15 08:09:00;;;;;;;;;42.60;40.00;;;;;;;;5273202;27;8801;-68
2022/01/15 08:11:31;;;;;;;;;44.33;40.00;;;;;;;;5291573;27;8774;-69
2022/01/15 08:14:02;;;;;;;;;47.00;40.50;;;;;;;;5309234;27;8810;-69
2022/01/15 08:16:33;;;;;;;;;37.20;35.20;;;;;;;;5309230;27;10136;-69
2022/01/15 08:19:04;;;;;;;;;43.75;43.75;;;;;;;;5290545;27;8826;-68
2022/01/15 08:21:35;;;;;;;;;69.33;54.33;;;;;;;;5309709;27;8758;-68
2022/01/15 08:24:06;;;;;;;;;41.50;39.50;;;;;;;;5309175;27;8952;-68
2022/01/15 08:26:37;;;;;;;;;42.00;37.75;;;;;;;;5313379;27;8793;-68
2022/01/15 08:29:08;;;;;;;;;50.00;47.00;;;;;;;;5313160;27;10729;-68
2022/01/15 08:31:39;;;;;;;;;51.00;47.00;;;;;;;;5313526;27;8781;-69
2022/01/15 08:34:10;;;;;;;;;52.33;48.67;;;;;;;;5294274;27;8751;-68
2022/01/15 08:36:41;;;;;;;;;52.40;48.20;;;;;;;;5290961;28;8771;-68
2022/01/15 08:39:30;;;;;;;;;68.75;58.25;;;;;;;;5290687;28;8801;-69
2022/01/15 08:42:02;;;;;;;;;74.50;60.00;;;;;;;;5291603;28;8785;-68
2022/01/15 08:44:34;;;;;;;;;72.75;59.00;;;;;;;;5291512;28;8797;-68
2022/01/15 08:47:05;;;;;;;;;75.25;57.75;;;;;;;;5290481;28;9472;-68
2022/01/15 08:49:36;;;;;;;;;34.50;34.00;;;;;;;;5273773;28;8805;-68
2022/01/15 08:52:07;;;;;;;;;49.80;46.20;;;;;;;;5292709;27;8778;-68
2022/01/15 08:54:38;;;;;;;;;54.67;44.67;;;;;;;;5294532;27;8829;-68
2022/01/15 08:57:09;;;;;;;;;55.25;49.25;;;;;;;;5277684;27;11459;-66
2022/01/15 08:59:39;;;;;;;;;63.00;48.00;;;;;;;;5312589;27;8858;-68
2022/01/15 09:02:10;;;;;;;;;33.25;32.75;;;;;;;;5293994;27;11475;-69
2022/01/15 09:04:42;;;;;;;;;63.33;54.33;;;;;;;;5295046;27;8802;-67
2022/01/15 09:07:13;;;;;;;;;36.80;36.60;;;;;;;;5294473;27;11027;-68
2022/01/15 09:09:44;;;;;;;;;36.25;32.75;;;;;;;;5313016;27;8847;-66
2022/01/15 09:12:17;;;;;;;;;24.75;24.25;;;;;;;;5294712;27;11466;-68
2022/01/15 09:14:58;;;;;;;;;21.60;21.60;;;;;;;;5310179;27;11479;-66
2022/01/15 09:17:29;;;;;;;;;39.80;38.60;;;;;;;;5286073;28;8796;-68
2022/01/15 09:20:00;;;;;;;;;29.20;28.80;;;;;;;;5291730;28;9492;-67
2022/01/15 09:22:31;;;;;;;;;34.75;32.50;;;;;;;;5273523;28;8781;-67
2022/01/15 09:25:02;;;;;;;;;37.25;32.50;;;;;;;;5273063;28;8884;-67
2022/01/15 09:30:42;;;;;;;;;78.00;51.75;;;;;;;;5291260;28;9863;-68
2022/01/15 09:33:14;;;;;;;;;75.67;59.00;;;;;;;;5272731;28;8985;-67
2022/01/15 09:35:45;;;;;;;;;62.00;45.00;;;;;;;;5303225;27;8770;-68
2022/01/15 09:38:16;;;;;;;;;54.75;48.00;;;;;;;;5311367;27;9532;-68
2022/01/15 09:40:47;;;;;;;;;51.50;48.25;;;;;;;;5312756;27;8770;-68
2022/01/15 09:43:17;;;;;;;;;60.00;50.67;;;;;;;;5312129;27;8758;-68
2022/01/15 09:45:48;;;;;;;;;60.00;48.25;;;;;;;;5276874;27;8812;-68
2022/01/15 09:48:19;;;;;;;;;32.25;30.50;;;;;;;;5311853;27;8812;-68
2022/01/15 09:50:52;;;;;;;;;39.25;37.50;;;;;;;;5294038;27;8827;-67
2022/01/15 09:53:42;;;;;;;;;40.80;38.00;;;;;;;;5311917;27;12170;-68
2022/01/15 09:56:13;;;;;;;;;38.40;35.00;;;;;;;;5311403;27;8793;-68
2022/01/15 09:59:03;;;;;;;;;24.20;21.40;;;;;;;;5279173;27;8797;-68
2022/01/15 10:01:34;;;;;;;;;41.60;38.60;;;;;;;;5311461;27;8798;-65
2022/01/15 10:04:05;;;;;;;;;47.00;36.50;;;;;;;;5312097;27;8763;-67
2022/01/15 10:07:07;;;;;;;;;59.60;47.60;;;;;;;;5311801;27;8783;-68
2022/01/15 10:09:38;;;;;;;;;43.00;41.80;;;;;;;;5312370;27;8743;-68
2022/01/15 10:12:10;;;;;;;;;47.80;44.20;;;;;;;;5276511;27;8924;-67
2022/01/15 10:14:42;;;;;;;;;41.80;39.80;;;;;;;;5311615;27;8822;-68
2022/01/15 10:17:26;;;;;;;;;35.60;34.40;;;;;;;;5276190;27;8862;-68
2022/01/15 10:19:58;;;;;;;;;38.60;38.60;;;;;;;;5312169;27;8790;-68
2022/01/15 10:22:31;;;;;;;;;51.20;44.60;;;;;;;;5311051;27;8783;-68
2022/01/15 10:25:05;;;;;;;;;53.80;48.80;;;;;;;;5311375;27;8774;-67
2022/01/15 10:27:55;;;;;;;;;27.80;24.40;;;;;;;;5295659;27;8867;-67
2022/01/15 10:30:27;;;;;;;;;48.75;38.00;;;;;;;;5311206;27;9468;-70
2022/01/15 10:33:04;;;;;;;;;51.40;44.00;;;;;;;;5293648;27;8818;-66
2022/01/15 10:35:39;;;;;;;;;48.60;45.60;;;;;;;;5296506;27;8780;-67
2022/01/15 10:38:12;;;;;;;;;52.00;48.40;;;;;;;;5271671;28;8799;-67
2022/01/15 10:40:43;;;;;;;;;34.40;28.60;;;;;;;;5289577;28;8765;-67
2022/01/15 10:43:18;;;;;;;;;37.25;35.75;;;;;;;;5254963;28;8765;-67
2022/01/15 10:45:53;;;;;;;;;62.50;49.50;;;;;;;;5297782;27;11481;-67
2022/01/15 10:48:26;;;;;;;;;53.80;47.60;;;;;;;;5289516;27;8828;-67
2022/01/15 10:50:59;;;;;;;;;69.00;54.25;;;;;;;;5290047;28;8883;-67
2022/01/15 10:57:54;;;;;;;;;44.60;42.00;;;;;;;;5289667;28;8772;-67
2022/01/15 11:00:42;;;;;;;;;41.80;40.40;;;;;;;;5289864;28;8780;-68
2022/01/15 11:03:16;;;;;;;;;42.80;40.00;;;;;;;;5271523;28;8847;-67
2022/01/15 11:05:50;;;;;;;;;35.80;34.80;;;;;;;;5288992;28;8894;-67
2022/01/15 11:08:26;;;;;;;;;61.40;48.00;;;;;;;;5289188;27;8780;-68
2022/01/15 11:11:02;;;;;;;;;68.25;54.00;;;;;;;;5289187;28;8781;-68
2022/01/15 11:17:57;;;;;;;;;35.40;29.00;;;;;;;;5296977;27;8909;-66
2022/01/15 11:20:30;;;;;;;;;48.25;42.25;;;;;;;;5285480;27;8902;-65
2022/01/15 11:27:28;;;;;;;;;35.50;33.75;;;;;;;;5288661;28;8708;-68
2022/01/15 11:29:59;;;;;;;;;60.80;45.20;;;;;;;;5270926;28;8804;-65
2022/01/15 11:32:31;;;;;;;;;59.50;49.00;;;;;;;;5288706;28;8784;-67
2022/01/15 11:39:30;;;;;;;;;59.00;49.50;;;;;;;;5287942;28;8776;-69
2022/01/15 11:46:52;;;;;;;;;68.00;54.25;;;;;;;;5288852;28;8926;-68
2022/01/15 11:49:29;;;;;;;;;46.25;44.50;;;;;;;;5270180;28;8835;-68
2022/01/15 11:52:06;;;;;;;;;37.80;37.00;;;;;;;;5271019;28;8752;-67
2022/01/15 11:54:37;;;;;;;;;55.75;48.50;;;;;;;;5270156;28;8804;-68
2022/01/15 11:57:27;;;;;;;;;40.75;36.25;;;;;;;;5288866;28;9447;-67
2022/01/15 12:00:03;;;;;;;;;26.60;25.80;;;;;;;;5276244;27;9468;-67
2022/01/15 12:02:40;;;;;;;;;49.00;43.40;;;;;;;;5310139;27;8789;-67
2022/01/15 12:05:17;;;;;;;;;38.75;37.25;;;;;;;;5309754;27;8819;-66
2022/01/15 12:08:11;;;;;;;;;47.50;42.00;;;;;;;;5309568;27;8889;-68
2022/01/15 12:10:45;;;;;;;;;81.00;66.00;;;;;;;;5293603;27;8810;-67
2022/01/15 12:13:20;;;;;;;;;66.50;55.50;;;;;;;;5309096;27;8900;-67
2022/01/15 12:16:27;;;;;;;;;78.75;63.50;;;;;;;;5309757;27;8811;-68
2022/01/15 12:18:59;;;;;;;;;77.25;61.00;;;;;;;;5202041;28;8840;-69
2022/01/15 12:21:48;;;;;;;;;78.25;63.75;;;;;;;;5286109;27;8962;-68
2022/01/15 12:24:38;;;;;;;;;96.33;75.00;;;;;;;;5291714;27;9430;-68
2022/01/15 12:27:11;;;;;;;;;73.50;61.75;;;;;;;;5309767;27;9297;-68
2022/01/15 12:29:43;;;;;;;;;52.75;47.75;;;;;;;;5309030;27;8885;-68
2022/01/15 12:32:26;;;;;;;;;67.00;54.00;;;;;;;;5309260;27;8778;-68
2022/01/15 12:34:59;;;;;;;;;56.50;50.50;;;;;;;;5290623;27;8790;-67
2022/01/15 12:37:30;;;;;;;;;40.00;39.00;;;;;;;;5309050;27;8789;-67
2022/01/15 12:40:04;;;;;;;;;54.25;48.25;;;;;;;;5309614;27;8751;-67
2022/01/15 12:42:35;;;;;;;;;62.00;52.00;;;;;;;;5309224;27;8786;-67
2022/01/15 12:45:06;;;;;;;;;58.75;51.50;;;;;;;;5309461;27;8866;-67
2022/01/15 12:47:46;;;;;;;;;53.33;47.67;;;;;;;;5308775;27;8763;-68
2022/01/15 12:50:17;;;;;;;;;40.25;40.00;;;;;;;;5309389;27;9691;-68
2022/01/15 12:52:57;;;;;;;;;36.25;35.00;;;;;;;;5291432;27;8751;-68
2022/01/15 12:55:30;;;;;;;;;44.25;41.50;;;;;;;;5308999;27;9469;-68
2022/01/15 12:58:02;;;;;;;;;78.75;60.25;;;;;;;;5308637;27;9600;-67
2022/01/15 13:00:34;;;;;;;;;72.75;55.25;;;;;;;;5257434;27;8921;-68
2022/01/15 13:03:09;;;;;;;;;84.50;66.25;;;;;;;;5308615;27;8794;-69
2022/01/15 13:05:41;;;;;;;;;73.25;58.75;;;;;;;;5309245;27;8771;-68
2022/01/15 13:08:14;;;;;;;;;72.67;56.33;;;;;;;;5308989;27;8794;-66
2022/01/15 13:10:51;;;;;;;;;52.50;48.00;;;;;;;;5309450;27;8770;-69
2022/01/15 13:13:23;;;;;;;;;75.25;61.50;;;;;;;;5312325;27;8783;-68
2022/01/15 13:16:14;;;;;;;;;72.75;54.50;;;;;;;;5312407;27;8790;-67
2022/01/15 13:18:48;;;;;;;;;56.75;49.00;;;;;;;;5312868;27;8793;-67
2022/01/15 13:21:40;;;;;;;;;46.50;45.25;;;;;;;;5312989;27;8817;-68
2022/01/15 13:24:11;;;;;;;;;34.75;34.25;;;;;;;;5294016;27;8767;-67
2022/01/15 13:26:47;;;;;;;;;53.25;45.50;;;;;;;;5312478;27;8909;-68
2022/01/15 13:29:37;;;;;;;;;29.00;25.50;;;;;;;;5297555;27;8767;-67
2022/01/15 13:32:09;;;;;;;;;32.80;29.80;;;;;;;;5312395;27;9429;-68
2022/01/15 13:34:42;;;;;;;;;61.00;50.00;;;;;;;;5294405;27;8759;-67
2022/01/15 13:37:18;;;;;;;;;45.50;41.25;;;;;;;;5311973;27;8903;-69
2022/01/15 13:40:08;;;;;;;;;74.00;60.50;;;;;;;;5296766;27;8787;-68
2022/01/15 13:42:38;;;;;;;;;42.50;39.50;;;;;;;;5276622;27;8778;-68
2022/01/15 13:45:09;;;;;;;;;53.67;48.00;;;;;;;;5293794;27;8783;-68
2022/01/15 13:48:16;;;;;;;;;45.50;42.25;;;;;;;;5294212;27;8787;-68
2022/01/15 13:54:04;;;;;;;;;71.25;56.25;;;;;;;;5312241;27;8813;-68
2022/01/15 13:56:36;;;;;;;;;53.75;47.00;;;;;;;;5311788;27;9543;-67
2022/01/15 13:59:09;;;;;;;;;36.20;35.60;;;;;;;;5311781;27;8790;-68
2022/01/15 14:01:47;;;;;;;;;54.00;48.00;;;;;;;;5312372;27;8793;-67
2022/01/15 14:04:27;;;;;;;;;48.25;44.75;;;;;;;;5312148;27;8763;-68
2022/01/15 14:06:59;;;;;;;;;49.00;45.25;;;;;;;;5293194;27;8763;-68
2022/01/15 14:09:31;;;;;;;;;44.25;41.75;;;;;;;;5311406;27;8767;-65
2022/01/15 14:12:12;;;;;;;;;51.00;44.25;;;;;;;;5293671;27;8762;-67
2022/01/15 14:14:59;;;;;;;;;24.00;23.40;;;;;;;;5293302;27;8840;-67
2022/01/15 14:17:32;;;;;;;;;35.00;34.00;;;;;;;;5311714;27;8759;-66
2022/01/15 14:20:40;;;;;;;;;48.00;45.25;;;;;;;;5312010;27;8822;-67
2022/01/15 14:22:54;;;;;;;;;45.00;43.50;;;;;;;;5310669;27;8874;-67
2022/01/15 14:25:26;;;;;;;;;42.00;41.50;;;;;;;;5310820;27;8774;-67
2022/01/15 14:28:05;;;;;;;;;37.50;37.50;;;;;;;;5310852;27;8846;-68
2022/01/15 14:30:44;;;;;;;;;36.25;35.25;;;;;;;;5311829;27;8754;-68
2022/01/15 14:33:15;;;;;;;;;65.25;53.00;;;;;;;;5311460;27;8774;-66
2022/01/15 14:35:46;;;;;;;;;59.67;51.00;;;;;;;;5292950;27;9445;-67
2022/01/15 14:38:17;;;;;;;;;36.33;33.67;;;;;;;;5308470;27;8949;-67
2022/01/15 14:41:06;;;;;;;;;35.25;33.75;;;;;;;;5296589;27;11017;-67
2022/01/15 14:43:37;;;;;;;;;24.50;23.25;;;;;;;;5290109;27;8766;-67
2022/01/15 14:46:08;;;;;;;;;39.60;37.80;;;;;;;;5288434;28;8928;-67
2022/01/15 14:48:40;;;;;;;;;64.67;54.33;;;;;;;;5289880;28;8912;-68
2022/01/15 14:51:13;;;;;;;;;70.75;58.50;;;;;;;;5283433;28;8759;-67
2022/01/15 14:53:44;;;;;;;;;45.50;40.75;;;;;;;;5302798;27;8762;-67
2022/01/15 15:00:45;;;;;;;;;52.75;45.75;;;;;;;;5292593;27;8772;-68
2022/01/15 15:03:16;;;;;;;;;76.25;64.25;;;;;;;;5289391;28;9465;-68
2022/01/15 15:05:47;;;;;;;;;98.33;77.00;;;;;;;;5288490;28;8894;-67
2022/01/15 15:08:21;;;;;;;;;63.00;48.67;;;;;;;;5298107;27;8806;-67
2022/01/15 15:10:54;;;;;;;;;55.00;48.25;;;;;;;;5310137;27;11444;-68
2022/01/15 15:13:27;;;;;;;;;43.75;39.50;;;;;;;;5292120;27;9465;-68
2022/01/15 15:15:58;;;;;;;;;48.80;40.80;;;;;;;;5309359;27;8825;-67
2022/01/15 15:18:30;;;;;;;;;33.25;31.75;;;;;;;;5308912;27;8814;-66
2022/01/15 15:21:01;;;;;;;;;34.60;33.20;;;;;;;;5309916;27;8758;-67
2022/01/15 15:23:32;;;;;;;;;17.33;17.33;;;;;;;;5310247;27;8851;-67
2022/01/15 15:26:21;;;;;;;;;30.40;29.40;;;;;;;;5310347;27;9457;-67
2022/01/15 15:28:52;;;;;;;;;30.75;29.75;;;;;;;;5309780;27;8763;-68
2022/01/15 15:31:23;;;;;;;;;14.00;14.00;;;;;;;;5309889;27;8770;-66
2022/01/15 15:33:55;;;;;;;;;13.50;12.00;;;;;;;;5290549;27;10174;-69
2022/01/15 15:36:26;;;;;;;;;37.00;34.40;;;;;;;;5291629;27;11391;-67
2022/01/15 15:39:02;;;;;;;;;60.50;49.25;;;;;;;;5291429;27;8867;-67
2022/01/15 15:41:51;;;;;;;;;57.50;49.00;;;;;;;;5310004;27;8781;-68
2022/01/15 15:44:22;;;;;;;;;58.33;49.33;;;;;;;;5292432;27;8778;-66
2022/01/15 15:46:53;;;;;;;;;2.00;2.00;;;;;;;;5291594;27;8794;-66
2022/01/15 15:49:24;;;;;;;;;25.50;25.50;;;;;;;;5274299;27;8786;-69
2022/01/15 15:51:55;;;;;;;;;15.25;15.00;;;;;;;;5310105;27;8785;-68
2022/01/15 15:54:26;;;;;;;;;40.25;37.75;;;;;;;;5309208;27;8782;-68
2022/01/15 16:01:21;;;;;;;;;36.50;34.00;;;;;;;;5308156;27;8750;-68
2022/01/15 16:08:18;;;;;;;;;57.50;47.00;;;;;;;;5308951;27;8698;-68
2022/01/15 16:10:49;;;;;;;;;37.33;37.33;;;;;;;;5291669;27;8767;-66
2022/01/15 16:13:20;;;;;;;;;28.50;28.50;;;;;;;;5309601;27;12221;-68